createdAt,value
2023-03-29T05:05:15.602Z,25.00
2023-03-29T05:06:16.624Z,25.00
2023-03-29T05:08:15.719Z,25.00
2023-03-29T05:09:16.718Z,0.00
2023-03-29T05:11:15.722Z,0.00
2023-03-29T05:12:16.788Z,0.00
2023-03-29T05:13:16.847Z,0.00
2023-03-29T05:18:16.051Z,0.00
2023-03-29T05:19:17.116Z,0.00
2023-03-29T05:20:17.135Z,0.00
2023-03-29T05:22:16.176Z,0.00
2023-03-29T05:23:17.210Z,0.00
2023-03-29T05:24:17.226Z,0.00
2023-03-29T05:25:17.290Z,0.00
2023-03-29T05:26:17.317Z,0.00
2023-03-29T05:27:17.370Z,0.00
2023-03-29T05:28:17.432Z,6.32
2023-03-29T05:29:17.489Z,26.35
2023-03-29T05:30:17.550Z,25.34
2023-03-29T05:31:17.645Z,27.47
2023-03-29T05:32:17.641Z,25.00
2023-03-29T05:33:17.695Z,25.00
2023-03-29T05:34:17.714Z,26.20
2023-03-29T05:35:17.782Z,27.28
2023-03-29T05:38:16.828Z,27.87
2023-03-29T05:39:16.836Z,29.52
2023-03-29T05:40:17.848Z,26.90
2023-03-29T05:41:17.896Z,25.61
2023-03-29T05:42:17.869Z,27.12
2023-03-29T05:44:16.867Z,26.80
2023-03-29T05:45:17.853Z,26.42
2023-03-29T05:46:18.009Z,26.44
2023-03-29T05:49:16.866Z,28.91
2023-03-29T05:50:17.894Z,28.11
2023-03-29T05:51:17.950Z,25.70
2023-03-29T05:55:16.978Z,34.72
2023-03-29T05:56:18.009Z,35.35
2023-03-29T05:57:17.101Z,34.37
2023-03-29T05:58:18.095Z,35.13
2023-03-29T05:59:17.106Z,35.82
2023-03-29T06:00:17.127Z,36.99
2023-03-29T06:01:18.302Z,40.56
2023-03-29T06:03:21.170Z,43.47
2023-03-29T06:04:18.353Z,43.75
2023-03-29T06:05:18.273Z,44.36
2023-03-29T06:07:17.223Z,51.65
2023-03-29T06:10:17.165Z,71.84
2023-03-29T06:11:17.293Z,75.36
2023-03-29T06:12:18.165Z,77.33
2023-03-29T06:13:18.150Z,77.49
2023-03-29T06:14:17.148Z,71.57
2023-03-29T06:15:18.148Z,76.82
2023-03-29T06:16:17.201Z,76.34
2023-03-29T06:17:18.171Z,76.99
2023-03-29T06:19:17.137Z,81.24
2023-03-29T06:20:17.188Z,80.32
2023-03-29T06:21:17.211Z,84.21
2023-03-29T06:22:18.275Z,84.38
2023-03-29T06:23:18.352Z,83.46
2023-03-29T06:26:17.477Z,88.05
2023-03-29T06:27:18.551Z,86.42
2023-03-29T06:28:17.597Z,88.22
2023-03-29T06:29:17.646Z,89.87
2023-03-29T06:30:18.837Z,93.80
2023-03-29T06:31:18.842Z,99.11
2023-03-29T06:32:18.872Z,100.16
2023-03-29T06:33:18.930Z,99.68
2023-03-29T06:34:18.878Z,98.24
2023-03-29T06:35:18.887Z,100.94
2023-03-29T06:36:18.971Z,104.39
2023-03-29T06:37:18.931Z,108.30
2023-03-29T06:38:18.973Z,116.45
2023-03-29T06:39:19.059Z,116.70
2023-03-29T06:40:19.128Z,119.63
2023-03-29T06:41:19.191Z,123.28
2023-03-29T06:42:21.659Z,120.76
2023-03-29T06:43:19.228Z,123.76
2023-03-29T06:44:19.241Z,122.81
2023-03-29T06:48:18.170Z,120.60
2023-03-29T06:49:19.253Z,123.29
2023-03-29T06:53:18.155Z,122.62
2023-03-29T06:54:18.145Z,124.27
2023-03-29T06:55:19.178Z,125.86
2023-03-29T06:56:19.121Z,129.40
2023-03-29T06:57:19.345Z,126.79
2023-03-29T06:58:19.113Z,131.77
2023-03-29T06:59:19.114Z,133.21
2023-03-29T07:02:18.077Z,131.71
2023-03-29T07:03:18.055Z,131.36
2023-03-29T07:04:19.125Z,134.03
2023-03-29T07:05:19.069Z,131.79
2023-03-29T07:07:18.028Z,126.37
2023-03-29T07:09:19.432Z,121.20
2023-03-29T07:10:17.998Z,115.04
2023-03-29T07:11:19.069Z,114.14
2023-03-29T07:12:18.123Z,112.18
2023-03-29T07:13:19.051Z,102.74
2023-03-29T07:14:19.159Z,88.42
2023-03-29T07:15:19.097Z,85.15
2023-03-29T07:16:19.391Z,91.79
2023-03-29T07:17:19.184Z,88.24
2023-03-29T07:18:19.204Z,92.97
2023-03-29T07:19:19.278Z,97.17
2023-03-29T07:22:18.418Z,101.59
2023-03-29T07:23:18.473Z,105.10
2023-03-29T07:24:19.546Z,104.23
2023-03-29T07:25:19.619Z,106.59
2023-03-29T07:26:28.705Z,107.66
2023-03-29T07:27:19.667Z,107.99
2023-03-29T07:28:18.628Z,108.82
2023-03-29T07:29:19.627Z,110.39
2023-03-29T07:30:19.660Z,113.02
2023-03-29T07:31:19.623Z,117.13
2023-03-29T07:34:18.599Z,122.06
2023-03-29T07:35:19.582Z,117.30
2023-03-29T07:36:19.638Z,122.04
2023-03-29T07:37:19.585Z,124.60
2023-03-29T07:38:19.739Z,122.73
2023-03-29T07:42:18.554Z,132.74
2023-03-29T07:43:19.594Z,129.72
2023-03-29T07:44:19.544Z,130.29
2023-03-29T07:45:19.516Z,131.89
2023-03-29T07:46:19.789Z,132.19
2023-03-29T07:47:19.834Z,132.39
2023-03-29T07:48:19.504Z,134.06
2023-03-29T07:52:18.851Z,132.65
2023-03-29T07:53:19.527Z,134.43
2023-03-29T07:54:18.532Z,136.83
2023-03-29T07:55:19.589Z,134.95
2023-03-29T07:56:19.652Z,131.38
2023-03-29T08:00:18.982Z,131.06
2023-03-29T08:01:19.672Z,130.33
2023-03-29T08:02:19.978Z,132.10
2023-03-29T08:03:20.118Z,134.36
2023-03-29T08:04:20.210Z,136.17
2023-03-29T08:06:19.150Z,137.44
2023-03-29T08:07:20.206Z,137.75
2023-03-29T08:08:19.245Z,148.10
2023-03-29T08:09:20.316Z,146.54
2023-03-29T08:10:20.364Z,147.18
2023-03-29T08:11:20.414Z,149.89
2023-03-29T08:12:21.598Z,161.85
2023-03-29T08:13:20.467Z,190.62
2023-03-29T08:15:19.469Z,229.97
2023-03-29T08:16:22.471Z,247.49
2023-03-29T08:19:19.429Z,247.69
2023-03-29T08:20:20.412Z,245.49
2023-03-29T08:22:19.407Z,238.26
2023-03-29T08:23:20.408Z,238.61
2023-03-29T08:26:19.380Z,235.80
2023-03-29T08:27:20.375Z,232.89
2023-03-29T08:30:19.370Z,226.56
2023-03-29T08:31:20.563Z,224.88
2023-03-29T08:33:19.380Z,221.87
2023-03-29T08:34:20.319Z,221.59
2023-03-29T08:36:19.348Z,215.19
2023-03-29T08:37:20.319Z,214.38
2023-03-29T08:41:19.293Z,211.83
2023-03-29T08:42:20.366Z,210.30
2023-03-29T08:43:20.308Z,208.57
2023-03-29T08:44:20.263Z,210.52
2023-03-29T08:48:19.235Z,208.59
2023-03-29T08:49:20.245Z,203.87
2023-03-29T08:53:19.208Z,203.05
2023-03-29T08:54:20.175Z,201.02
2023-03-29T08:57:19.215Z,196.87
2023-03-29T08:58:20.477Z,202.18
2023-03-29T08:59:20.144Z,201.14
2023-03-29T09:03:19.256Z,199.12
2023-03-29T09:04:19.100Z,196.55
2023-03-29T09:06:19.099Z,198.64
2023-03-29T09:07:19.104Z,197.73
2023-03-29T09:08:20.090Z,194.35
2023-03-29T09:09:20.139Z,197.07
2023-03-29T09:10:20.159Z,192.99
2023-03-29T09:11:20.194Z,196.58
2023-03-29T09:12:20.244Z,193.78
2023-03-29T09:13:20.358Z,194.31
2023-03-29T09:14:20.271Z,194.16
2023-03-29T09:16:19.333Z,192.49
2023-03-29T09:17:20.279Z,193.46
2023-03-29T09:19:19.302Z,191.70
2023-03-29T09:20:19.321Z,195.31
2023-03-29T09:21:20.328Z,193.93
2023-03-29T09:22:20.362Z,192.66
2023-03-29T09:23:20.369Z,195.10
2023-03-29T09:24:20.446Z,191.88
2023-03-29T09:26:19.460Z,191.83
2023-03-29T09:27:20.523Z,192.43
2023-03-29T09:29:19.499Z,192.51
2023-03-29T09:32:19.485Z,190.06
2023-03-29T09:33:20.534Z,191.24
2023-03-29T09:34:20.545Z,190.96
2023-03-29T09:35:20.640Z,190.16
2023-03-29T09:37:19.612Z,188.52
2023-03-29T09:38:20.650Z,191.14
2023-03-29T09:40:19.656Z,190.92
2023-03-29T09:41:20.777Z,187.66
2023-03-29T09:42:20.698Z,189.15
2023-03-29T09:43:20.719Z,189.56
2023-03-29T09:44:30.169Z,190.85
2023-03-29T09:45:20.766Z,191.02
2023-03-29T09:46:19.785Z,191.53
2023-03-29T09:47:20.740Z,190.70
2023-03-29T09:49:19.711Z,189.78
2023-03-29T09:50:30.747Z,187.94
2023-03-29T09:51:20.727Z,188.26
2023-03-29T09:52:20.707Z,188.61
2023-03-29T09:53:20.891Z,188.70
2023-03-29T09:55:19.703Z,192.65
2023-03-29T09:56:20.669Z,191.28
2023-03-29T10:01:19.694Z,190.49
2023-03-29T10:03:19.630Z,189.69
2023-03-29T10:04:19.678Z,189.37
2023-03-29T10:05:20.640Z,191.63
2023-03-29T10:09:19.585Z,190.40
2023-03-29T10:10:20.573Z,188.55
2023-03-29T10:11:20.616Z,191.35
2023-03-29T10:15:29.206Z,188.56
2023-03-29T10:16:20.632Z,188.78
2023-03-29T10:17:20.618Z,189.46
2023-03-29T10:19:19.515Z,189.27
2023-03-29T10:20:20.536Z,187.30
2023-03-29T10:21:20.785Z,189.01
2023-03-29T10:25:19.500Z,186.08
2023-03-29T10:26:20.469Z,188.44
2023-03-29T10:27:20.495Z,186.58
2023-03-29T10:29:19.479Z,187.50
2023-03-29T10:32:19.458Z,188.82
2023-03-29T10:33:20.431Z,188.88
2023-03-29T10:34:20.415Z,190.84
2023-03-29T10:36:19.471Z,188.80
2023-03-29T10:37:20.452Z,187.96
2023-03-29T10:38:20.444Z,186.42
2023-03-29T10:39:20.445Z,188.93
2023-03-29T10:41:19.443Z,190.08
2023-03-29T10:42:20.375Z,188.72
2023-03-29T10:43:20.394Z,189.64
2023-03-29T10:44:21.207Z,189.36
2023-03-29T10:45:20.438Z,186.92
2023-03-29T10:46:20.596Z,190.01
2023-03-29T10:47:20.516Z,188.16
2023-03-29T10:48:20.527Z,188.98
2023-03-29T10:49:19.916Z,188.14
2023-03-29T10:50:20.590Z,189.98
2023-03-29T10:51:20.596Z,191.74
2023-03-29T10:52:20.579Z,186.11
2023-03-29T10:53:20.576Z,186.68
2023-03-29T10:54:20.590Z,190.46
2023-03-29T10:55:20.656Z,189.45
2023-03-29T10:56:20.654Z,188.13
2023-03-29T10:57:22.794Z,188.02
2023-03-29T10:58:20.691Z,191.70
2023-03-29T11:01:19.665Z,191.89
2023-03-29T11:02:20.665Z,190.92
2023-03-29T11:03:21.592Z,188.47
2023-03-29T11:04:20.634Z,193.56
2023-03-29T11:05:20.648Z,192.11
2023-03-29T11:10:19.781Z,240.58
2023-03-29T11:11:20.861Z,249.93
2023-03-29T11:12:20.901Z,250.00
2023-03-29T11:13:20.946Z,250.11
2023-03-29T11:14:21.034Z,241.21
2023-03-29T11:15:20.084Z,238.15
2023-03-29T11:16:21.215Z,239.19
2023-03-29T11:17:21.210Z,233.49
2023-03-29T11:18:21.258Z,232.88
2023-03-29T11:19:21.325Z,229.99
2023-03-29T11:20:21.375Z,227.43
2023-03-29T11:21:21.421Z,225.90
2023-03-29T11:22:21.490Z,223.78
2023-03-29T11:23:21.516Z,220.87
2023-03-29T11:25:20.556Z,219.25
2023-03-29T11:26:21.595Z,215.41
2023-03-29T11:27:20.671Z,215.59
2023-03-29T11:28:21.727Z,212.50
2023-03-29T11:29:21.853Z,210.85
2023-03-29T11:30:21.850Z,206.94
2023-03-29T11:34:20.916Z,191.85
2023-03-29T11:35:21.899Z,200.64
2023-03-29T11:36:21.991Z,175.28
2023-03-29T11:37:22.000Z,158.06
2023-03-29T11:38:22.036Z,151.96
2023-03-29T11:39:22.417Z,155.47
2023-03-29T11:42:21.101Z,159.89
2023-03-29T11:43:22.105Z,158.71
2023-03-29T11:44:22.085Z,161.75
2023-03-29T11:45:21.058Z,159.48
2023-03-29T11:46:22.147Z,160.23
2023-03-29T11:47:22.107Z,163.15
2023-03-29T11:48:22.178Z,163.69
2023-03-29T11:49:22.197Z,163.95
2023-03-29T11:50:22.220Z,163.50
2023-03-29T11:51:22.292Z,166.84
2023-03-29T11:52:22.341Z,166.11
2023-03-29T11:53:22.403Z,166.99
2023-03-29T11:54:22.462Z,168.37
2023-03-29T11:55:22.540Z,166.00
2023-03-29T11:56:22.578Z,167.92
2023-03-29T11:57:21.721Z,169.19
2023-03-29T11:58:22.697Z,168.98
2023-03-29T11:59:22.772Z,167.71
2023-03-29T12:00:22.830Z,169.57
2023-03-29T12:01:22.909Z,168.65
2023-03-29T12:02:23.004Z,168.52
2023-03-29T12:03:23.113Z,169.42
2023-03-29T12:04:25.196Z,168.87
2023-03-29T12:07:22.074Z,172.97
2023-03-29T12:08:23.033Z,169.89
2023-03-29T12:10:22.025Z,170.69
2023-03-29T12:11:23.028Z,171.10
2023-03-29T12:12:23.006Z,173.20
2023-03-29T12:14:22.020Z,172.65
2023-03-29T12:15:23.008Z,171.70
2023-03-29T12:17:22.027Z,172.39
2023-03-29T12:18:22.973Z,170.87
2023-03-29T12:19:22.001Z,171.91
2023-03-29T12:20:22.939Z,170.30
2023-03-29T12:21:22.969Z,171.16
2023-03-29T12:22:22.936Z,171.21
2023-03-29T12:25:23.370Z,171.28
2023-03-29T12:26:22.902Z,170.07
2023-03-29T12:27:22.913Z,170.06
2023-03-29T12:28:23.026Z,169.65
2023-03-29T12:29:23.035Z,169.84
2023-03-29T12:30:23.068Z,172.32
2023-03-29T12:31:23.191Z,170.46
2023-03-29T12:32:23.213Z,169.91
2023-03-29T12:33:23.315Z,171.13
2023-03-29T12:34:22.312Z,171.94
2023-03-29T12:35:23.378Z,172.24
2023-03-29T12:36:22.434Z,172.26
2023-03-29T12:37:23.553Z,172.30
2023-03-29T12:38:23.562Z,171.56
2023-03-29T12:39:23.648Z,169.50
2023-03-29T12:40:23.671Z,172.44
2023-03-29T12:41:22.741Z,169.14
2023-03-29T12:42:23.794Z,169.66
2023-03-29T12:43:23.877Z,169.26
2023-03-29T12:47:23.134Z,169.21
2023-03-29T12:48:24.159Z,170.91
2023-03-29T12:49:24.230Z,169.58
2023-03-29T12:50:24.315Z,171.45
2023-03-29T12:51:24.389Z,168.79
2023-03-29T12:52:23.388Z,169.85
2023-03-29T12:53:24.473Z,169.24
2023-03-29T12:54:26.812Z,168.94
2023-03-29T12:55:24.558Z,169.10
2023-03-29T12:56:23.512Z,168.98
2023-03-29T12:57:24.566Z,167.77
2023-03-29T13:00:23.511Z,169.69
2023-03-29T13:03:23.517Z,170.64
2023-03-29T13:04:24.471Z,169.02
2023-03-29T13:08:23.453Z,168.17
2023-03-29T13:13:23.480Z,167.57
2023-03-29T13:14:24.525Z,169.24
2023-03-29T13:15:24.584Z,167.07
2023-03-29T13:16:24.706Z,166.49
2023-03-29T13:17:24.844Z,164.99
2023-03-29T13:18:23.743Z,167.04
2023-03-29T13:19:24.826Z,165.93
2023-03-29T13:20:24.880Z,163.05
2023-03-29T13:21:24.948Z,167.47
2023-03-29T13:22:24.983Z,167.12
2023-03-29T13:23:25.057Z,166.13
2023-03-29T13:24:25.092Z,165.89
2023-03-29T13:25:25.145Z,166.38
2023-03-29T13:26:25.205Z,164.67
2023-03-29T13:27:25.253Z,165.89
2023-03-29T13:28:25.325Z,166.19
2023-03-29T13:29:25.385Z,163.21
2023-03-29T13:30:25.467Z,165.57
2023-03-29T13:31:25.508Z,164.77
2023-03-29T13:32:25.593Z,166.13
2023-03-29T13:33:25.613Z,163.94
2023-03-29T13:36:24.807Z,163.26
2023-03-29T13:37:25.856Z,164.31
2023-03-29T13:38:25.937Z,163.93
2023-03-29T13:39:25.954Z,164.89
2023-03-29T13:40:26.023Z,162.61
2023-03-29T13:41:26.086Z,162.29
2023-03-29T13:42:26.146Z,163.88
2023-03-29T13:43:26.201Z,162.97
2023-03-29T13:44:26.235Z,164.75
2023-03-29T13:45:26.241Z,162.86
2023-03-29T13:46:28.027Z,161.50
2023-03-29T13:47:26.268Z,163.65
2023-03-29T13:48:26.279Z,166.36
2023-03-29T13:49:26.247Z,164.60
2023-03-29T13:51:25.250Z,163.82
2023-03-29T13:52:26.211Z,162.84
2023-03-29T13:54:25.199Z,161.97
2023-03-29T13:55:26.200Z,162.21
2023-03-29T14:00:25.479Z,160.88
2023-03-29T14:01:26.182Z,160.10
2023-03-29T14:02:25.222Z,162.05
2023-03-29T14:03:26.206Z,160.77
2023-03-29T14:04:26.162Z,161.98
2023-03-29T14:09:25.113Z,161.69
2023-03-29T14:10:25.153Z,159.87
2023-03-29T14:11:26.087Z,160.09
2023-03-29T14:12:26.068Z,158.49
2023-03-29T14:13:26.072Z,160.86
2023-03-29T14:16:25.082Z,155.75
2023-03-29T14:17:26.063Z,159.36
2023-03-29T14:18:26.028Z,159.24
2023-03-29T14:22:25.007Z,155.47
2023-03-29T14:23:26.028Z,157.49
2023-03-29T14:29:25.656Z,158.40
2023-03-29T14:30:25.963Z,158.97
2023-03-29T14:31:26.042Z,158.20
2023-03-29T14:32:24.967Z,158.26
2023-03-29T14:33:25.938Z,156.04
2023-03-29T14:37:24.900Z,157.10
2023-03-29T14:38:25.896Z,155.18
2023-03-29T14:39:25.936Z,155.58
2023-03-29T14:41:24.882Z,152.97
2023-03-29T14:42:25.938Z,156.02
2023-03-29T14:47:24.893Z,155.50
2023-03-29T14:48:24.886Z,154.00
2023-03-29T14:49:25.880Z,153.62
2023-03-29T14:50:25.888Z,153.77
2023-03-29T14:53:24.863Z,154.11
2023-03-29T14:54:25.858Z,154.12
2023-03-29T14:55:25.917Z,155.34
2023-03-29T14:56:25.868Z,154.09
2023-03-29T15:02:25.023Z,155.24
2023-03-29T15:03:25.984Z,154.33
2023-03-29T15:04:25.858Z,153.36
2023-03-29T15:05:25.867Z,152.46
2023-03-29T15:11:24.907Z,151.46
2023-03-29T15:12:25.905Z,155.97
2023-03-29T15:13:25.960Z,156.62
2023-03-29T15:14:25.983Z,163.71
2023-03-29T15:15:26.197Z,131.18
2023-03-29T15:16:26.116Z,88.13
2023-03-29T15:17:31.309Z,70.12
2023-03-29T15:22:25.098Z,3.83
2023-03-29T15:23:26.111Z,25.64
2023-03-29T15:26:25.105Z,46.76
2023-03-29T15:27:26.544Z,49.28
